Terminal Aerodrome Forecast
Issued by NWS

Home | Current Version | Previous Version | Text Only | Print | Product List | Glossary On
Versions: 1 2 3 4 5 6 7 8 9 10 11 12 13 14
000
FTUS41 KBTV 212300
TAFRUT
TAF
KRUT 212323Z 2200/2224 12010G20KT P6SM VCSH OVC020
      TEMPO 2202/2206 3SM -SHRA BR OVC015
     FM220600 13006KT 5SM BR VCSH OVC020
     FM221300 14007KT P6SM VCSH BKN035
      AMD LTD TO CLD VIS AND WIND=

USA.gov is the U.S. government's official web portal to all federal, state and local government web resources and services.